createdAt,value
2023-10-09T00:00:35.477Z,7.80
2023-10-09T00:04:00.649Z,6.10
2023-10-09T00:06:43.360Z,8.00
2023-10-09T00:09:31.574Z,6.60
2023-10-09T00:12:13.688Z,8.70
2023-10-09T00:14:58.569Z,9.20
2023-10-09T00:17:40.658Z,8.20
2023-10-09T00:20:27.530Z,7.90
2023-10-09T00:23:14.001Z,8.50
2023-10-09T00:26:14.647Z,11.70
2023-10-09T00:29:13.580Z,7.70
2023-10-09T00:32:20.562Z,8.90
2023-10-09T00:35:29.605Z,7.20
2023-10-09T00:38:15.789Z,7.10
2023-10-09T00:41:24.566Z,8.50
2023-10-09T00:44:00.769Z,7.70
2023-10-09T00:46:50.538Z,8.20
2023-10-09T00:49:25.651Z,10.90
2023-10-09T00:52:24.578Z,12.20
2023-10-09T00:55:04.442Z,8.60
2023-10-09T00:58:08.524Z,10.00
2023-10-09T01:00:46.552Z,11.60
2023-10-09T01:03:35.675Z,8.70
2023-10-09T01:06:11.658Z,9.80
2023-10-09T01:09:08.928Z,9.50
2023-10-09T01:12:06.638Z,11.80
2023-10-09T01:14:44.434Z,12.80
2023-10-09T01:17:38.569Z,10.70
2023-10-09T01:20:28.715Z,11.80
2023-10-09T01:23:10.550Z,12.10
2023-10-09T01:25:54.017Z,12.50
2023-10-09T01:28:36.533Z,9.00
2023-10-09T01:31:22.107Z,9.60
2023-10-09T01:34:11.688Z,12.60
2023-10-09T01:36:50.324Z,8.90
2023-10-09T01:39:39.541Z,8.10
2023-10-09T01:42:26.282Z,9.00
2023-10-09T01:45:19.589Z,8.40
2023-10-09T01:48:04.585Z,8.30
2023-10-09T01:51:01.558Z,9.30
2023-10-09T01:54:04.567Z,9.50
2023-10-09T01:57:01.543Z,9.50
2023-10-09T02:00:05.208Z,8.40
2023-10-09T02:02:53.676Z,7.70
2023-10-09T02:05:34.638Z,7.40
2023-10-09T02:08:25.539Z,10.30
2023-10-09T02:11:03.379Z,7.30
2023-10-09T02:13:53.530Z,7.80
2023-10-09T02:16:42.822Z,8.00
2023-10-09T02:19:57.538Z,8.70
2023-10-09T02:22:35.800Z,12.70
2023-10-09T02:25:21.980Z,9.70
2023-10-09T02:28:25.522Z,11.20
2023-10-09T02:31:26.571Z,11.00
2023-10-09T02:34:28.543Z,9.90
2023-10-09T02:40:31.529Z,10.70
2023-10-09T02:43:27.514Z,12.30
2023-10-09T02:49:17.549Z,7.60
2023-10-09T02:52:09.555Z,9.40
2023-10-09T02:55:08.521Z,8.80
2023-10-09T02:58:12.528Z,7.00
2023-10-09T03:01:08.535Z,9.30
2023-10-09T03:07:05.527Z,8.50
2023-10-09T03:13:00.518Z,6.40
2023-10-09T03:15:56.513Z,7.90
2023-10-09T03:21:41.540Z,8.10
2023-10-09T03:24:17.776Z,6.80
2023-10-09T03:27:06.639Z,10.40
2023-10-09T03:30:02.557Z,10.40
2023-10-09T03:35:57.535Z,13.10
2023-10-09T03:38:53.495Z,10.40
2023-10-09T03:41:49.562Z,9.10
2023-10-09T03:44:52.584Z,10.30
2023-10-09T03:47:55.585Z,10.40
2023-10-09T03:50:53.550Z,9.60
2023-10-09T03:53:47.620Z,8.70
2023-10-09T03:56:29.608Z,8.60
2023-10-09T03:59:13.273Z,10.70
2023-10-09T04:01:58.934Z,8.90
2023-10-09T04:04:41.620Z,9.60
2023-10-09T04:07:23.619Z,9.80
2023-10-09T04:10:25.517Z,9.10
2023-10-09T04:13:11.881Z,10.60
2023-10-09T04:15:54.709Z,9.20
2023-10-09T04:18:39.706Z,7.80
2023-10-09T04:21:41.680Z,8.60
2023-10-09T04:24:30.550Z,13.00
2023-10-09T04:27:34.531Z,12.60
2023-10-09T04:30:31.587Z,11.60
2023-10-09T04:33:35.730Z,9.80
2023-10-09T04:36:34.543Z,9.80
2023-10-09T04:39:36.396Z,8.40
2023-10-09T04:42:43.508Z,10.80
2023-10-09T04:45:27.188Z,10.30
2023-10-09T04:48:15.505Z,10.20
2023-10-09T04:51:10.588Z,9.30
2023-10-09T04:54:19.537Z,30.10
2023-10-09T04:57:01.563Z,12.60
2023-10-09T04:59:48.794Z,7.70
2023-10-09T05:02:31.599Z,9.80
2023-10-09T05:05:17.787Z,9.40
2023-10-09T05:08:05.578Z,9.50
2023-10-09T05:11:00.154Z,6.80
2023-10-09T05:13:46.517Z,7.80
2023-10-09T05:16:34.621Z,7.90
2023-10-09T05:19:36.486Z,7.00
2023-10-09T05:22:31.418Z,8.50
2023-10-09T05:28:32.515Z,9.50
2023-10-09T05:31:41.547Z,8.10
2023-10-09T05:34:21.264Z,7.30
2023-10-09T05:37:32.509Z,7.90
2023-10-09T05:40:19.748Z,10.10
2023-10-09T05:43:04.186Z,10.80
2023-10-09T05:48:39.618Z,9.80
2023-10-09T05:51:34.737Z,7.00
2023-10-09T05:54:16.496Z,6.80
2023-10-09T05:57:16.569Z,11.70
2023-10-09T06:00:17.580Z,8.20
2023-10-09T06:03:24.914Z,9.30
2023-10-09T06:06:11.481Z,7.50
2023-10-09T06:09:12.358Z,8.70
2023-10-09T06:11:56.522Z,12.30
2023-10-09T06:14:39.566Z,9.20
2023-10-09T06:17:21.502Z,7.50
2023-10-09T06:20:23.530Z,8.20
2023-10-09T06:23:05.479Z,7.50
2023-10-09T06:25:52.801Z,6.40
2023-10-09T06:28:40.514Z,6.40
2023-10-09T06:31:52.207Z,6.90
2023-10-09T06:34:42.469Z,10.60
2023-10-09T06:40:06.481Z,7.00
2023-10-09T06:42:52.528Z,8.20
2023-10-09T06:45:51.661Z,11.80
2023-10-09T06:48:36.472Z,9.70
2023-10-09T06:51:33.539Z,9.60
2023-10-09T06:54:11.002Z,9.40
2023-10-09T06:57:01.463Z,9.70
2023-10-09T06:59:51.503Z,11.80
2023-10-09T07:02:53.512Z,9.30
2023-10-09T07:06:07.513Z,7.40
2023-10-09T07:09:12.562Z,9.90
2023-10-09T07:12:10.525Z,8.10
2023-10-09T07:15:02.724Z,8.10
2023-10-09T07:17:53.597Z,8.20
2023-10-09T07:20:38.238Z,10.20
2023-10-09T07:23:29.479Z,8.40
2023-10-09T07:26:26.569Z,9.30
2023-10-09T07:29:24.459Z,9.40
2023-10-09T07:32:04.754Z,8.50
2023-10-09T07:35:02.497Z,9.00
2023-10-09T07:37:39.191Z,7.10
2023-10-09T07:40:39.529Z,7.80
2023-10-09T07:43:17.703Z,7.60
2023-10-09T07:46:07.533Z,8.70
2023-10-09T07:48:54.957Z,8.80
2023-10-09T07:51:43.524Z,7.40
2023-10-09T07:54:33.208Z,8.10
2023-10-09T07:57:24.536Z,9.60
2023-10-09T08:00:02.538Z,8.80
2023-10-09T08:02:51.479Z,7.70
2023-10-09T08:05:34.424Z,7.00
2023-10-09T08:08:41.567Z,7.60
2023-10-09T08:11:35.542Z,9.50
2023-10-09T08:14:23.496Z,6.40
2023-10-09T08:17:24.518Z,7.10
2023-10-09T08:20:12.842Z,5.10
2023-10-09T08:22:59.569Z,7.80
2023-10-09T08:25:42.496Z,5.30
2023-10-09T08:28:41.107Z,8.70
2023-10-09T08:31:53.466Z,4.60
2023-10-09T08:37:20.493Z,7.10
2023-10-09T08:39:57.291Z,4.90
2023-10-09T08:42:46.433Z,6.10
2023-10-09T08:45:24.124Z,6.00
2023-10-09T08:48:17.063Z,7.10
2023-10-09T08:50:55.541Z,6.30
2023-10-09T08:53:50.458Z,6.60
2023-10-09T08:56:26.750Z,6.10
2023-10-09T08:59:15.555Z,7.80
2023-10-09T09:01:53.291Z,6.70
2023-10-09T09:04:47.181Z,7.40
2023-10-09T09:07:33.590Z,5.60
2023-10-09T09:10:19.000Z,5.80
2023-10-09T09:13:15.508Z,5.70
2023-10-09T09:15:58.768Z,5.90
2023-10-09T09:19:04.442Z,5.20
2023-10-09T09:21:50.174Z,6.10
2023-10-09T09:24:34.733Z,6.10
2023-10-09T09:27:11.733Z,8.30
2023-10-09T09:30:01.441Z,6.10
2023-10-09T09:33:17.455Z,8.30
2023-10-09T09:36:20.448Z,6.70
2023-10-09T09:39:26.632Z,7.50
2023-10-09T09:42:23.505Z,6.00
2023-10-09T09:45:20.502Z,5.90
2023-10-09T09:48:22.532Z,5.20
2023-10-09T09:51:18.499Z,5.20
2023-10-09T09:54:07.526Z,6.20
2023-10-09T09:56:44.502Z,3.60
2023-10-09T09:59:30.362Z,5.10
2023-10-09T10:02:16.581Z,4.80
2023-10-09T10:04:52.554Z,5.70
2023-10-09T10:07:31.495Z,4.00
2023-10-09T10:10:55.472Z,3.90
2023-10-09T10:13:50.161Z,6.00
2023-10-09T10:16:25.799Z,4.50
2023-10-09T10:19:29.644Z,5.70
2023-10-09T10:22:37.447Z,4.90
2023-10-09T10:28:46.501Z,2.90
2023-10-09T10:32:08.524Z,4.20
2023-10-09T10:35:04.444Z,3.00
2023-10-09T10:38:08.453Z,6.70
2023-10-09T10:41:08.457Z,3.50
2023-10-09T10:44:07.558Z,3.70
2023-10-09T10:47:03.718Z,4.10
2023-10-09T10:49:52.451Z,3.20
2023-10-09T10:52:42.988Z,5.00
2023-10-09T10:55:37.586Z,3.60
2023-10-09T10:58:48.299Z,3.90
2023-10-09T11:02:00.620Z,3.00
2023-10-09T11:04:37.684Z,4.50
2023-10-09T11:07:32.452Z,3.00
2023-10-09T11:10:07.698Z,4.50
2023-10-09T11:12:59.487Z,3.80
2023-10-09T11:15:45.958Z,3.40
2023-10-09T11:18:35.548Z,2.80
2023-10-09T11:21:17.504Z,4.00
2023-10-09T11:23:59.632Z,4.40
2023-10-09T11:26:41.845Z,3.10
2023-10-09T11:29:26.521Z,4.50
2023-10-09T11:32:12.588Z,11.90
2023-10-09T11:35:01.487Z,5.10
2023-10-09T11:37:46.388Z,4.30
2023-10-09T11:41:01.448Z,5.00
2023-10-09T11:43:55.622Z,5.60
2023-10-09T11:47:04.527Z,3.50
2023-10-09T11:50:02.849Z,5.30
2023-10-09T11:53:16.448Z,3.60
2023-10-09T11:55:59.802Z,4.50
2023-10-09T11:58:41.608Z,2.60
2023-10-09T12:01:24.569Z,3.40
2023-10-09T12:04:06.408Z,3.00
2023-10-09T12:06:50.725Z,3.30
2023-10-09T12:09:32.541Z,2.90
2023-10-09T12:12:15.469Z,4.20
2023-10-09T12:14:59.504Z,3.20
2023-10-09T12:17:45.774Z,4.60
2023-10-09T12:20:42.443Z,4.00
2023-10-09T12:23:17.579Z,3.90
2023-10-09T12:26:07.500Z,2.90
2023-10-09T12:28:47.584Z,3.30
2023-10-09T12:31:41.470Z,4.00
2023-10-09T12:34:18.055Z,3.60
2023-10-09T12:37:09.564Z,4.00
2023-10-09T12:39:44.523Z,3.50
2023-10-09T12:42:35.413Z,4.30
2023-10-09T12:45:19.653Z,3.70
2023-10-09T12:48:17.499Z,4.30
2023-10-09T12:51:14.434Z,3.50
2023-10-09T12:54:10.529Z,4.00
2023-10-09T12:57:07.450Z,6.50
2023-10-09T13:00:03.444Z,5.80
2023-10-09T13:02:59.586Z,3.60
2023-10-09T13:06:06.418Z,3.20
2023-10-09T13:09:07.430Z,2.80
2023-10-09T13:12:07.411Z,3.40
2023-10-09T13:15:03.482Z,3.40
2023-10-09T13:17:52.588Z,3.80
2023-10-09T13:20:29.020Z,3.70
2023-10-09T13:23:22.421Z,4.30
2023-10-09T13:25:58.624Z,4.20
2023-10-09T13:28:54.440Z,5.00
2023-10-09T13:31:54.472Z,3.70
2023-10-09T13:34:53.439Z,4.70
2023-10-09T13:37:38.001Z,4.00
2023-10-09T13:40:34.479Z,3.80
2023-10-09T13:43:18.183Z,4.40
2023-10-09T13:46:11.412Z,3.80
2023-10-09T13:48:47.742Z,4.10
2023-10-09T13:51:36.429Z,4.10
2023-10-09T13:54:35.651Z,4.30
2023-10-09T13:57:17.471Z,3.70
2023-10-09T13:59:59.388Z,4.70
2023-10-09T14:02:42.330Z,5.60
2023-10-09T14:05:24.422Z,4.00
2023-10-09T14:08:10.136Z,4.50
2023-10-09T14:10:56.456Z,4.40
2023-10-09T14:13:38.561Z,3.90
2023-10-09T14:16:31.661Z,4.50
2023-10-09T14:19:14.869Z,3.90
2023-10-09T14:21:59.876Z,5.00
2023-10-09T14:24:45.495Z,4.90
2023-10-09T14:27:27.384Z,4.60
2023-10-09T14:30:30.410Z,4.00
2023-10-09T14:33:30.427Z,4.40
2023-10-09T14:36:26.410Z,4.10
2023-10-09T14:39:26.497Z,4.40
2023-10-09T14:42:23.424Z,3.60
2023-10-09T14:45:15.480Z,45.50
2023-10-09T14:47:50.519Z,12.60
2023-10-09T14:50:39.582Z,3.90
2023-10-09T14:53:16.488Z,4.30
2023-10-09T14:56:08.589Z,4.40
2023-10-09T14:58:46.078Z,3.70
2023-10-09T15:01:48.489Z,4.50
2023-10-09T15:04:45.446Z,3.80
2023-10-09T15:07:42.666Z,4.70
2023-10-09T15:10:39.441Z,3.70
2023-10-09T15:13:28.375Z,5.40
2023-10-09T15:16:05.038Z,3.90
2023-10-09T15:18:49.658Z,3.80
2023-10-09T15:21:35.413Z,4.50
2023-10-09T15:24:16.253Z,5.20
2023-10-09T15:26:53.684Z,4.70
2023-10-09T15:29:50.394Z,3.80
2023-10-09T15:32:46.510Z,3.60
2023-10-09T15:35:42.404Z,5.20
2023-10-09T15:38:38.390Z,5.70
2023-10-09T15:41:37.417Z,5.10
2023-10-09T15:44:28.317Z,5.20
2023-10-09T15:47:04.584Z,5.20
2023-10-09T15:49:53.424Z,61.40
2023-10-09T15:52:28.895Z,14.00
2023-10-09T15:55:21.389Z,6.00
2023-10-09T15:57:56.494Z,4.90
2023-10-09T16:00:45.403Z,5.70
2023-10-09T16:03:20.581Z,4.80
2023-10-09T16:06:02.639Z,4.90
2023-10-09T16:08:49.371Z,5.10
2023-10-09T16:11:33.428Z,4.00
2023-10-09T16:14:11.348Z,5.30
2023-10-09T16:17:03.518Z,4.90
2023-10-09T16:19:42.049Z,5.80
2023-10-09T16:22:32.355Z,7.10
2023-10-09T16:25:11.097Z,5.40
2023-10-09T16:28:00.388Z,6.60
2023-10-09T16:30:37.258Z,5.40
2023-10-09T16:33:27.438Z,6.00
2023-10-09T16:36:02.613Z,6.00
2023-10-09T16:38:51.423Z,6.50
2023-10-09T16:41:34.421Z,6.70
2023-10-09T16:44:18.659Z,5.80
2023-10-09T16:47:02.439Z,6.20
2023-10-09T16:49:48.437Z,24.90
2023-10-09T16:52:31.386Z,31.00
2023-10-09T16:55:19.574Z,11.20
2023-10-09T16:58:03.935Z,9.20
2023-10-09T17:00:47.946Z,8.20
2023-10-09T17:03:35.766Z,6.90
2023-10-09T17:06:20.567Z,6.90
2023-10-09T17:09:04.446Z,6.70
2023-10-09T17:11:53.265Z,8.10
2023-10-09T17:14:42.391Z,8.40
2023-10-09T17:17:22.043Z,7.40
2023-10-09T17:20:17.471Z,8.30
2023-10-09T17:22:53.519Z,7.60
2023-10-09T17:25:42.420Z,9.20
2023-10-09T17:28:22.480Z,9.10
2023-10-09T17:31:18.466Z,11.40
2023-10-09T17:34:15.618Z,9.50
2023-10-09T17:37:05.405Z,9.70
2023-10-09T17:39:40.605Z,11.50
2023-10-09T17:42:23.038Z,15.30
2023-10-09T17:45:05.483Z,30.90
2023-10-09T17:47:42.287Z,24.10
2023-10-09T17:50:17.750Z,16.00
2023-10-09T17:53:02.507Z,15.30
2023-10-09T17:55:38.495Z,15.90
2023-10-09T17:58:14.324Z,14.60
2023-10-09T18:00:59.612Z,16.80
2023-10-09T18:03:49.545Z,16.30
2023-10-09T18:06:24.605Z,13.10
2023-10-09T18:09:23.400Z,12.70
2023-10-09T18:11:59.178Z,14.70
2023-10-09T18:14:48.368Z,14.40
2023-10-09T18:17:24.454Z,11.40
2023-10-09T18:20:13.420Z,12.90
2023-10-09T18:22:49.922Z,14.50
2023-10-09T18:25:38.364Z,14.90
2023-10-09T18:28:15.356Z,14.40
2023-10-09T18:31:04.447Z,13.20
2023-10-09T18:34:00.352Z,16.70
2023-10-09T18:36:36.915Z,14.80
2023-10-09T18:39:30.359Z,14.50
2023-10-09T18:42:07.995Z,15.70
2023-10-09T18:47:39.636Z,15.00
2023-10-09T18:50:24.371Z,13.80
2023-10-09T18:53:20.391Z,14.60
2023-10-09T18:56:16.450Z,14.70
2023-10-09T18:59:15.819Z,14.30
2023-10-09T19:02:12.508Z,17.50
2023-10-09T19:05:01.441Z,16.50
2023-10-09T19:07:40.595Z,15.60
2023-10-09T19:10:33.360Z,15.00
2023-10-09T19:13:11.254Z,17.40
2023-10-09T19:16:00.388Z,17.40
2023-10-09T19:18:39.392Z,15.60
2023-10-09T19:21:30.356Z,13.40
2023-10-09T19:24:14.712Z,18.10
2023-10-09T19:27:04.346Z,17.80
2023-10-09T19:29:39.510Z,18.80
2023-10-09T19:32:29.646Z,18.20
2023-10-09T19:35:12.394Z,22.70
2023-10-09T19:38:08.398Z,24.60
2023-10-09T19:41:04.462Z,25.60
2023-10-09T19:46:57.460Z,27.60
2023-10-09T19:49:53.341Z,23.80
2023-10-09T19:52:49.401Z,19.80
2023-10-09T19:55:45.399Z,22.50
2023-10-09T19:58:41.342Z,21.90
2023-10-09T20:01:37.376Z,21.30
2023-10-09T20:04:33.340Z,20.20
2023-10-09T20:07:23.616Z,17.90
2023-10-09T20:10:02.640Z,17.80
2023-10-09T20:12:44.887Z,21.00
2023-10-09T20:15:33.350Z,26.60
2023-10-09T20:18:09.382Z,27.50
2023-10-09T20:20:58.422Z,31.00
2023-10-09T20:23:34.791Z,52.90
2023-10-09T20:26:24.559Z,32.70
2023-10-09T20:29:02.163Z,28.30
2023-10-09T20:31:52.457Z,26.70
2023-10-09T20:34:34.346Z,24.00
2023-10-09T20:37:17.852Z,22.70
2023-10-09T20:40:00.530Z,22.50
2023-10-09T20:42:42.390Z,22.00
2023-10-09T20:45:29.336Z,20.40
2023-10-09T20:48:11.500Z,24.40
2023-10-09T20:50:53.356Z,18.20
2023-10-09T20:53:35.706Z,20.60
2023-10-09T20:56:18.458Z,22.30
2023-10-09T20:59:02.165Z,24.30
2023-10-09T21:01:51.471Z,22.50
2023-10-09T21:04:26.465Z,27.10
2023-10-09T21:07:15.457Z,32.80
2023-10-09T21:09:51.420Z,32.50
2023-10-09T21:12:40.335Z,30.40
2023-10-09T21:15:17.487Z,26.70
2023-10-09T21:18:07.922Z,25.90
2023-10-09T21:20:45.465Z,27.90
2023-10-09T21:23:34.306Z,22.30
2023-10-09T21:26:10.475Z,20.30
2023-10-09T21:28:59.332Z,19.60
2023-10-09T21:31:35.667Z,22.90
2023-10-09T21:34:24.408Z,24.80
2023-10-09T21:36:59.376Z,20.10
2023-10-09T21:39:48.509Z,17.20
2023-10-09T21:42:24.398Z,15.50
2023-10-09T21:45:15.341Z,17.70
2023-10-09T21:47:56.436Z,15.40
2023-10-09T21:50:46.340Z,15.60
2023-10-09T21:53:21.431Z,12.50
2023-10-09T21:56:15.753Z,15.70
2023-10-09T21:58:53.843Z,13.90
2023-10-09T22:01:35.578Z,14.10
2023-10-09T22:04:19.385Z,11.60
2023-10-09T22:06:54.415Z,19.10
2023-10-09T22:09:36.309Z,16.40
2023-10-09T22:12:18.408Z,16.80
2023-10-09T22:15:00.324Z,15.10
2023-10-09T22:17:45.433Z,13.10
2023-10-09T22:20:28.363Z,18.40
2023-10-09T22:23:15.096Z,15.20
2023-10-09T22:26:08.505Z,12.20
2023-10-09T22:28:52.022Z,16.20
2023-10-09T22:31:36.402Z,15.30
2023-10-09T22:34:21.090Z,14.20
2023-10-09T22:37:03.341Z,15.10
2023-10-09T22:39:54.308Z,17.70
2023-10-09T22:42:30.371Z,24.80
2023-10-09T22:45:22.314Z,25.90
2023-10-09T22:47:59.619Z,22.70
2023-10-09T22:53:40.667Z,20.90
2023-10-09T22:56:29.376Z,21.50
2023-10-09T22:59:21.520Z,23.10
2023-10-09T23:02:05.005Z,20.90
2023-10-09T23:04:46.335Z,24.00
2023-10-09T23:07:28.303Z,19.90
2023-10-09T23:10:16.279Z,20.70
2023-10-09T23:13:22.311Z,23.50
2023-10-09T23:16:17.657Z,25.80
2023-10-09T23:19:15.574Z,24.70
2023-10-09T23:22:13.824Z,23.40
2023-10-09T23:25:16.330Z,20.00
2023-10-09T23:27:51.991Z,21.70
2023-10-09T23:30:47.325Z,20.30
2023-10-09T23:33:38.329Z,22.30
2023-10-09T23:36:30.055Z,19.40
2023-10-09T23:39:20.301Z,17.40
2023-10-09T23:42:03.753Z,19.80
2023-10-09T23:44:46.302Z,21.30
2023-10-09T23:47:32.944Z,19.40
2023-10-09T23:50:23.384Z,17.50
2023-10-09T23:53:05.383Z,19.40
2023-10-09T23:55:50.684Z,20.00
2023-10-09T23:58:37.263Z,21.70
